Lexington, Michigan
Current Conditions -  °F | °C
As of 5:18 AM on Monday 20 Oct 2014 (Local Time) from CYZR Reporting Station
Light Rain Light Rain  
Wind Chill: 45°   Ceiling: 7600
Heat Index: 48°   Visibility: 9mi
Dew Point: 41°   Wind: 7mph
Humidity: 76%   Direction: 200°SSW
Pressure: 29.87"   Gusts: NA
Location:  43.27°N, 82.53°W
Report Text: CYZR 200918Z AUTO 20006KT 9SM -RA SCT055 BKN076 OVC096 09/05 A2987 RMK SLP119
Loading
Personal Weather Stations






























Interactive Weather Map
Tropical Storm Tracking
New forecast layout! Learn more

10-Day Weather Forecast

Advertisements
Track Severe Weather on mobile